createdAt,value
2019-03-21T00:05:18.308Z,9.10
2019-03-21T00:15:25.275Z,9.10
2019-03-21T00:25:28.217Z,9.00
2019-03-21T00:35:30.776Z,9.00
2019-03-21T00:45:33.290Z,9.00
2019-03-21T00:55:36.390Z,8.90
2019-03-21T01:05:38.424Z,8.90
2019-03-21T01:15:40.966Z,8.80
2019-03-21T01:25:46.246Z,8.70
2019-03-21T01:35:48.777Z,8.60
2019-03-21T01:45:51.312Z,8.60
2019-03-21T01:55:54.082Z,8.50
2019-03-21T02:05:57.706Z,8.40
2019-03-21T02:16:00.559Z,8.30
2019-03-21T02:26:03.795Z,8.20
2019-03-21T02:36:06.384Z,8.20
2019-03-21T02:46:09.272Z,8.20
2019-03-21T02:56:14.281Z,8.20
2019-03-21T03:06:16.907Z,8.10
2019-03-21T03:16:19.678Z,8.10
2019-03-21T03:26:22.713Z,8.10
2019-03-21T03:36:25.393Z,8.00
2019-03-21T03:46:29.566Z,8.00
2019-03-21T03:56:32.428Z,8.00
2019-03-21T04:06:35.473Z,7.90
2019-03-21T04:16:38.478Z,7.80
2019-03-21T04:26:41.318Z,7.80
2019-03-21T04:36:43.911Z,7.80
2019-03-21T04:46:46.501Z,7.70
2019-03-21T04:56:49.464Z,7.70
2019-03-21T05:06:52.514Z,7.60
2019-03-21T05:16:55.557Z,7.60
2019-03-21T05:26:58.295Z,7.60
2019-03-21T05:37:00.851Z,7.50
2019-03-21T05:47:03.354Z,7.50
2019-03-21T05:57:06.559Z,7.50
2019-03-21T06:07:27.927Z,7.50
2019-03-21T06:17:31.424Z,7.60
2019-03-21T06:27:35.097Z,7.70
2019-03-21T06:37:38.566Z,7.70
2019-03-21T06:47:41.087Z,7.80
2019-03-21T06:57:43.982Z,7.90
2019-03-21T07:07:47.114Z,8.00
2019-03-21T07:17:49.503Z,8.10
2019-03-21T07:27:52.318Z,8.30
2019-03-21T07:37:54.866Z,8.40
2019-03-21T07:47:58.013Z,8.50
2019-03-21T07:58:00.035Z,8.80
2019-03-21T08:08:02.903Z,9.00
2019-03-21T08:18:05.418Z,9.20
2019-03-21T08:28:08.118Z,9.50
2019-03-21T08:38:11.399Z,9.70
2019-03-21T08:48:14.678Z,9.90
2019-03-21T08:58:18.048Z,10.00
2019-03-21T09:08:20.932Z,10.20
2019-03-21T09:18:23.502Z,10.40
2019-03-21T09:28:27.438Z,10.60
2019-03-21T09:38:31.412Z,10.80
2019-03-21T09:48:34.270Z,11.10
2019-03-21T09:58:37.059Z,11.20
2019-03-21T10:08:39.726Z,11.50
2019-03-21T10:18:42.511Z,11.90
2019-03-21T10:28:45.042Z,12.10
2019-03-21T10:38:48.758Z,12.20
2019-03-21T10:49:10.447Z,12.50
2019-03-21T10:59:13.316Z,12.80
2019-03-21T11:09:16.923Z,13.10
2019-03-21T11:19:19.371Z,13.40
2019-03-21T11:29:22.387Z,13.70
2019-03-21T11:39:25.264Z,14.10
2019-03-21T11:49:27.763Z,14.50
2019-03-21T11:59:46.218Z,14.70
2019-03-21T12:09:35.215Z,15.00
2019-03-21T12:19:40.927Z,15.10
2019-03-21T12:29:43.688Z,15.30
2019-03-21T12:39:45.433Z,15.80
2019-03-21T12:49:47.890Z,22.60
2019-03-21T12:59:50.790Z,27.70
2019-03-21T13:09:53.850Z,30.30
2019-03-21T13:19:56.340Z,31.80
2019-03-21T13:29:59.115Z,34.00
2019-03-21T13:40:01.935Z,36.20
2019-03-21T13:50:06.184Z,38.30
2019-03-21T14:00:11.295Z,39.60
2019-03-21T14:10:14.320Z,40.50
2019-03-21T14:20:16.828Z,40.80
2019-03-21T14:30:19.670Z,41.10
2019-03-21T14:40:22.226Z,40.70
2019-03-21T14:50:24.986Z,40.60
2019-03-21T15:00:27.766Z,40.30
2019-03-21T15:10:30.276Z,39.90
2019-03-21T15:20:32.815Z,39.20
2019-03-21T15:30:35.327Z,25.50
2019-03-21T15:40:37.963Z,21.10
2019-03-21T15:50:41.019Z,19.50
2019-03-21T16:00:43.967Z,18.50
2019-03-21T16:10:46.462Z,17.80
2019-03-21T16:20:48.322Z,17.40
2019-03-21T16:30:51.033Z,17.10
2019-03-21T16:40:52.822Z,16.80
2019-03-21T16:50:55.427Z,16.50
2019-03-21T17:00:58.260Z,16.30
2019-03-21T17:11:00.484Z,16.10
2019-03-21T17:21:03.117Z,15.90
2019-03-21T17:31:06.519Z,15.60
2019-03-21T17:41:09.767Z,15.50
2019-03-21T17:51:26.871Z,15.20
2019-03-21T18:01:30.182Z,14.70
2019-03-21T18:11:33.041Z,14.50
2019-03-21T18:21:34.769Z,14.30
2019-03-21T18:31:38.080Z,14.30
2019-03-21T18:41:41.841Z,14.10
2019-03-21T18:51:44.370Z,13.80
2019-03-21T19:01:58.038Z,13.60
2019-03-21T19:11:52.834Z,13.50
2019-03-21T19:21:55.422Z,13.40
2019-03-21T19:31:57.951Z,13.20
2019-03-21T19:42:01.447Z,13.10
2019-03-21T19:52:05.521Z,12.90
2019-03-21T20:02:08.337Z,12.80
2019-03-21T20:12:11.109Z,12.70
2019-03-21T20:22:13.691Z,12.60
2019-03-21T20:32:20.740Z,12.60
2019-03-21T20:42:22.642Z,12.60
2019-03-21T20:52:25.743Z,12.50
2019-03-21T21:02:27.861Z,12.60
2019-03-21T21:12:30.430Z,12.60
2019-03-21T21:22:32.982Z,12.60
2019-03-21T21:32:36.301Z,12.70
2019-03-21T21:42:39.112Z,12.50
2019-03-21T21:52:42.581Z,12.30
2019-03-21T22:02:45.227Z,12.00
2019-03-21T22:12:47.879Z,12.00
2019-03-21T22:22:50.602Z,11.80
2019-03-21T22:32:53.304Z,11.80
2019-03-21T22:42:56.767Z,11.80
2019-03-21T22:52:59.299Z,11.80
2019-03-21T23:03:03.032Z,11.80
2019-03-21T23:13:05.626Z,11.70
2019-03-21T23:23:08.335Z,11.60
2019-03-21T23:33:11.137Z,11.50
2019-03-21T23:43:13.922Z,11.30
2019-03-21T23:53:16.415Z,11.20
